Almozara, Spain
Current Conditions -  °F | °C
As of 10:00 AM on Friday 31 Oct 2014 (Local Time) from LEZG Reporting Station
Haze Haze  
Wind Chill: 55°   Ceiling: 1700
Heat Index: 55°   Visibility: 1.1mi
Dew Point: 52°   Wind: 1mph
Humidity: 88%   Direction: NA
Pressure: 30.3"   Gusts: NA
Location:  41.66°N, 0.9°W
Report Text: LEZG 310900Z VRB01KT 1800 BR BKN017 13/11 Q1026
Loading
Personal Weather Stations






























Interactive Weather Map
Tropical Storm Tracking
New forecast layout! Learn more

10-Day Weather Forecast

Advertisements
Track Severe Weather on mobile